sensor_id;sensor_type;location;lat;lon;timestamp;pressure;altitude;pressure_sealevel;temperature;humidity
47726;BME280;33483;48.294;16.388;2023-02-18T00:00:32;99896.53;;;12.80;100.00
47726;BME280;33483;48.294;16.388;2023-02-18T00:03:18;99886.69;;;12.79;100.00
47726;BME280;33483;48.294;16.388;2023-02-18T00:05:45;99894.59;;;12.75;100.00
47726;BME280;33483;48.294;16.388;2023-02-18T00:08:14;99899.53;;;12.82;100.00
47726;BME280;33483;48.294;16.388;2023-02-18T00:10:41;99898.34;;;12.91;100.00
47726;BME280;33483;48.294;16.388;2023-02-18T00:13:09;99903.75;;;13.02;100.00
47726;BME280;33483;48.294;16.388;2023-02-18T00:15:36;99901.78;;;12.97;100.00
47726;BME280;33483;48.294;16.388;2023-02-18T00:18:04;99889.25;;;12.90;100.00
47726;BME280;33483;48.294;16.388;2023-02-18T00:20:31;99894.19;;;12.84;100.00
47726;BME280;33483;48.294;16.388;2023-02-18T00:23:02;99896.97;;;12.84;100.00
47726;BME280;33483;48.294;16.388;2023-02-18T00:25:29;99893.66;;;12.86;100.00
47726;BME280;33483;48.294;16.388;2023-02-18T00:27:56;99897.81;;;12.79;100.00
47726;BME280;33483;48.294;16.388;2023-02-18T00:30:25;99900.16;;;12.75;100.00
47726;BME280;33483;48.294;16.388;2023-02-18T00:32:54;99893.84;;;12.75;100.00
47726;BME280;33483;48.294;16.388;2023-02-18T00:35:21;99904.56;;;12.84;100.00
47726;BME280;33483;48.294;16.388;2023-02-18T00:37:50;99908.41;;;12.81;100.00
47726;BME280;33483;48.294;16.388;2023-02-18T00:40:17;99904.13;;;12.80;100.00
47726;BME280;33483;48.294;16.388;2023-02-18T00:42:47;99900.81;;;12.81;100.00
47726;BME280;33483;48.294;16.388;2023-02-18T00:45:14;99912.34;;;12.85;100.00
47726;BME280;33483;48.294;16.388;2023-02-18T00:47:41;99913.44;;;12.82;100.00
47726;BME280;33483;48.294;16.388;2023-02-18T00:50:08;99912.25;;;12.78;100.00
47726;BME280;33483;48.294;16.388;2023-02-18T00:52:36;99913.84;;;12.73;100.00
47726;BME280;33483;48.294;16.388;2023-02-18T00:55:03;99913.31;;;12.75;100.00
47726;BME280;33483;48.294;16.388;2023-02-18T00:57:31;99911.59;;;12.72;100.00
47726;BME280;33483;48.294;16.388;2023-02-18T01:00:04;99915.25;;;12.67;100.00
47726;BME280;33483;48.294;16.388;2023-02-18T01:02:31;99919.50;;;12.68;100.00
47726;BME280;33483;48.294;16.388;2023-02-18T01:04:59;99923.03;;;12.68;100.00
47726;BME280;33483;48.294;16.388;2023-02-18T01:07:26;99923.03;;;12.68;100.00
47726;BME280;33483;48.294;16.388;2023-02-18T01:09:53;99920.81;;;12.67;100.00
47726;BME280;33483;48.294;16.388;2023-02-18T01:12:20;99914.69;;;12.68;100.00
47726;BME280;33483;48.294;16.388;2023-02-18T01:14:48;99911.72;;;12.79;100.00
47726;BME280;33483;48.294;16.388;2023-02-18T01:17:17;99916.75;;;12.81;100.00
47726;BME280;33483;48.294;16.388;2023-02-18T01:19:44;99925.22;;;12.88;100.00
47726;BME280;33483;48.294;16.388;2023-02-18T01:22:14;99917.72;;;12.96;100.00
47726;BME280;33483;48.294;16.388;2023-02-18T01:24:41;99906.53;;;13.02;100.00
47726;BME280;33483;48.294;16.388;2023-02-18T01:27:11;99905.13;;;13.08;100.00
47726;BME280;33483;48.294;16.388;2023-02-18T01:29:40;99898.06;;;13.07;100.00
47726;BME280;33483;48.294;16.388;2023-02-18T01:32:07;99894.00;;;13.08;100.00
47726;BME280;33483;48.294;16.388;2023-02-18T01:34:34;99894.09;;;13.16;100.00
47726;BME280;33483;48.294;16.388;2023-02-18T01:37:01;99895.38;;;13.15;100.00
47726;BME280;33483;48.294;16.388;2023-02-18T01:39:29;99885.31;;;13.12;100.00
47726;BME280;33483;48.294;16.388;2023-02-18T01:41:56;99888.09;;;13.25;100.00
47726;BME280;33483;48.294;16.388;2023-02-18T01:44:24;99877.81;;;13.20;100.00
47726;BME280;33483;48.294;16.388;2023-02-18T01:46:54;99895.91;;;13.26;100.00
47726;BME280;33483;48.294;16.388;2023-02-18T01:49:28;99876.63;;;13.28;100.00
47726;BME280;33483;48.294;16.388;2023-02-18T01:51:59;99877.16;;;13.27;100.00
47726;BME280;33483;48.294;16.388;2023-02-18T01:54:48;99886.38;;;13.22;100.00
47726;BME280;33483;48.294;16.388;2023-02-18T01:57:19;99883.38;;;13.20;100.00
47726;BME280;33483;48.294;16.388;2023-02-18T01:59:48;99875.25;;;13.09;100.00
47726;BME280;33483;48.294;16.388;2023-02-18T02:02:17;99884.47;;;13.04;100.00
47726;BME280;33483;48.294;16.388;2023-02-18T02:04:45;99884.66;;;13.06;100.00
47726;BME280;33483;48.294;16.388;2023-02-18T02:07:12;99882.63;;;13.06;100.00
47726;BME280;33483;48.294;16.388;2023-02-18T02:09:40;99888.28;;;13.01;100.00
47726;BME280;33483;48.294;16.388;2023-02-18T02:12:12;99886.94;;;13.07;100.00
47726;BME280;33483;48.294;16.388;2023-02-18T02:35:22;99884.56;;;13.11;100.00
47726;BME280;33483;48.294;16.388;2023-02-18T02:50:46;99886.47;;;13.29;100.00
47726;BME280;33483;48.294;16.388;2023-02-18T02:53:19;99879.41;;;13.28;100.00
47726;BME280;33483;48.294;16.388;2023-02-18T02:55:48;99865.78;;;13.38;100.00
47726;BME280;33483;48.294;16.388;2023-02-18T02:58:18;99884.53;;;13.37;100.00
47726;BME280;33483;48.294;16.388;2023-02-18T03:00:53;99873.84;;;13.28;100.00
47726;BME280;33483;48.294;16.388;2023-02-18T03:03:28;99868.28;;;13.28;100.00
47726;BME280;33483;48.294;16.388;2023-02-18T03:11:33;99863.38;;;13.21;100.00
47726;BME280;33483;48.294;16.388;2023-02-18T03:14:11;99869.59;;;13.14;100.00
47726;BME280;33483;48.294;16.388;2023-02-18T03:19:27;99869.38;;;13.12;100.00
47726;BME280;33483;48.294;16.388;2023-02-18T03:22:04;99873.63;;;13.13;100.00
47726;BME280;33483;48.294;16.388;2023-02-18T03:24:33;99879.63;;;13.04;100.00
47726;BME280;33483;48.294;16.388;2023-02-18T03:29:36;99884.56;;;12.98;100.00
47726;BME280;33483;48.294;16.388;2023-02-18T03:32:04;99875.34;;;12.90;100.00
47726;BME280;33483;48.294;16.388;2023-02-18T03:34:33;99888.72;;;12.79;100.00
47726;BME280;33483;48.294;16.388;2023-02-18T03:37:02;99873.44;;;12.72;100.00
47726;BME280;33483;48.294;16.388;2023-02-18T03:39:30;99883.34;;;12.68;100.00
47726;BME280;33483;48.294;16.388;2023-02-18T03:41:58;99881.88;;;12.67;100.00
47726;BME280;33483;48.294;16.388;2023-02-18T03:44:25;99883.66;;;12.64;100.00
47726;BME280;33483;48.294;16.388;2023-02-18T03:46:52;99883.66;;;12.51;100.00
47726;BME280;33483;48.294;16.388;2023-02-18T03:49:20;99887.09;;;12.44;100.00
47726;BME280;33483;48.294;16.388;2023-02-18T03:51:47;99877.22;;;12.43;100.00
47726;BME280;33483;48.294;16.388;2023-02-18T03:54:14;99877.66;;;12.47;100.00
47726;BME280;33483;48.294;16.388;2023-02-18T03:56:42;99896.28;;;12.52;100.00
47726;BME280;33483;48.294;16.388;2023-02-18T03:59:09;99889.09;;;12.43;100.00
47726;BME280;33483;48.294;16.388;2023-02-18T04:01:37;99903.22;;;12.45;100.00
47726;BME280;33483;48.294;16.388;2023-02-18T04:04:04;99907.50;;;12.46;100.00
47726;BME280;33483;48.294;16.388;2023-02-18T04:06:32;99898.84;;;12.50;100.00
47726;BME280;33483;48.294;16.388;2023-02-18T04:08:59;99897.88;;;12.48;100.00
47726;BME280;33483;48.294;16.388;2023-02-18T04:11:26;99896.59;;;12.35;100.00
47726;BME280;33483;48.294;16.388;2023-02-18T04:13:53;99894.97;;;12.27;100.00
47726;BME280;33483;48.294;16.388;2023-02-18T04:16:20;99906.69;;;12.20;100.00
47726;BME280;33483;48.294;16.388;2023-02-18T04:18:47;99910.44;;;12.22;100.00
47726;BME280;33483;48.294;16.388;2023-02-18T04:21:14;99906.50;;;12.31;100.00
47726;BME280;33483;48.294;16.388;2023-02-18T04:23:41;99904.16;;;12.22;100.00
47726;BME280;33483;48.294;16.388;2023-02-18T04:26:08;99909.69;;;12.22;100.00
47726;BME280;33483;48.294;16.388;2023-02-18T04:28:36;99906.25;;;12.16;100.00
47726;BME280;33483;48.294;16.388;2023-02-18T04:31:03;99905.19;;;12.19;100.00
47726;BME280;33483;48.294;16.388;2023-02-18T04:33:30;99909.38;;;12.25;100.00
47726;BME280;33483;48.294;16.388;2023-02-18T04:35:58;99915.69;;;12.26;100.00
47726;BME280;33483;48.294;16.388;2023-02-18T04:38:25;99906.00;;;12.32;100.00
47726;BME280;33483;48.294;16.388;2023-02-18T04:40:52;99907.56;;;12.28;100.00
47726;BME280;33483;48.294;16.388;2023-02-18T04:43:21;99910.34;;;12.28;100.00
47726;BME280;33483;48.294;16.388;2023-02-18T04:45:48;99911.88;;;12.29;100.00
47726;BME280;33483;48.294;16.388;2023-02-18T04:48:16;99912.91;;;12.26;100.00
47726;BME280;33483;48.294;16.388;2023-02-18T04:50:43;99914.41;;;12.27;100.00
47726;BME280;33483;48.294;16.388;2023-02-18T04:53:10;99918.69;;;12.28;100.00
47726;BME280;33483;48.294;16.388;2023-02-18T04:55:37;99923.16;;;12.31;100.00
47726;BME280;33483;48.294;16.388;2023-02-18T04:58:04;99918.59;;;12.33;100.00
47726;BME280;33483;48.294;16.388;2023-02-18T05:00:32;99915.38;;;12.29;100.00
47726;BME280;33483;48.294;16.388;2023-02-18T05:02:58;99914.97;;;12.38;100.00
47726;BME280;33483;48.294;16.388;2023-02-18T05:05:26;99925.88;;;12.36;100.00
47726;BME280;33483;48.294;16.388;2023-02-18T05:07:53;99928.09;;;12.38;100.00
47726;BME280;33483;48.294;16.388;2023-02-18T05:10:20;99938.06;;;12.33;100.00
47726;BME280;33483;48.294;16.388;2023-02-18T05:12:47;99938.13;;;12.28;100.00
47726;BME280;33483;48.294;16.388;2023-02-18T05:15:17;99945.41;;;12.31;100.00
47726;BME280;33483;48.294;16.388;2023-02-18T05:17:46;99948.00;;;12.29;100.00
47726;BME280;33483;48.294;16.388;2023-02-18T05:20:14;99943.69;;;12.28;100.00
47726;BME280;33483;48.294;16.388;2023-02-18T05:22:40;99939.50;;;12.21;100.00
47726;BME280;33483;48.294;16.388;2023-02-18T05:25:08;99943.84;;;12.17;100.00
47726;BME280;33483;48.294;16.388;2023-02-18T05:27:36;99943.03;;;12.22;100.00
47726;BME280;33483;48.294;16.388;2023-02-18T05:30:03;99948.59;;;12.22;100.00
47726;BME280;33483;48.294;16.388;2023-02-18T05:32:32;99948.38;;;12.20;100.00
47726;BME280;33483;48.294;16.388;2023-02-18T05:35:00;99946.13;;;12.18;100.00
47726;BME280;33483;48.294;16.388;2023-02-18T05:37:27;99952.50;;;12.13;100.00
47726;BME280;33483;48.294;16.388;2023-02-18T05:39:54;99957.09;;;12.11;100.00
47726;BME280;33483;48.294;16.388;2023-02-18T05:42:21;99960.72;;;12.06;100.00
47726;BME280;33483;48.294;16.388;2023-02-18T05:44:51;99954.25;;;11.98;100.00
47726;BME280;33483;48.294;16.388;2023-02-18T05:47:18;99950.50;;;11.95;100.00
47726;BME280;33483;48.294;16.388;2023-02-18T05:49:48;99952.16;;;12.04;100.00
47726;BME280;33483;48.294;16.388;2023-02-18T05:52:16;99966.09;;;12.17;100.00
47726;BME280;33483;48.294;16.388;2023-02-18T05:54:44;99970.16;;;12.16;100.00
47726;BME280;33483;48.294;16.388;2023-02-18T05:57:12;99965.88;;;12.15;100.00
47726;BME280;33483;48.294;16.388;2023-02-18T05:59:39;99963.94;;;12.10;100.00
47726;BME280;33483;48.294;16.388;2023-02-18T06:02:06;99969.59;;;12.04;100.00
47726;BME280;33483;48.294;16.388;2023-02-18T06:04:33;99968.22;;;12.11;100.00
47726;BME280;33483;48.294;16.388;2023-02-18T06:07:03;99970.31;;;12.05;100.00
47726;BME280;33483;48.294;16.388;2023-02-18T06:09:30;99971.81;;;12.06;100.00
47726;BME280;33483;48.294;16.388;2023-02-18T06:12:00;99975.78;;;12.10;100.00
47726;BME280;33483;48.294;16.388;2023-02-18T06:14:27;99974.22;;;12.15;100.00
47726;BME280;33483;48.294;16.388;2023-02-18T06:16:54;99976.78;;;12.13;100.00
47726;BME280;33483;48.294;16.388;2023-02-18T06:19:24;99983.00;;;12.19;100.00
47726;BME280;33483;48.294;16.388;2023-02-18T06:21:51;99980.13;;;12.24;100.00
47726;BME280;33483;48.294;16.388;2023-02-18T06:24:18;99986.22;;;12.23;100.00
47726;BME280;33483;48.294;16.388;2023-02-18T06:26:45;99982.38;;;12.26;100.00
47726;BME280;33483;48.294;16.388;2023-02-18T06:29:13;99970.53;;;12.25;100.00
47726;BME280;33483;48.294;16.388;2023-02-18T06:31:40;99974.78;;;12.26;100.00
47726;BME280;33483;48.294;16.388;2023-02-18T06:34:11;99978.34;;;12.27;100.00
47726;BME280;33483;48.294;16.388;2023-02-18T06:36:38;99970.22;;;12.29;100.00
47726;BME280;33483;48.294;16.388;2023-02-18T06:39:06;99978.63;;;12.23;100.00
47726;BME280;33483;48.294;16.388;2023-02-18T06:41:35;99975.56;;;12.27;100.00
47726;BME280;33483;48.294;16.388;2023-02-18T06:44:03;99969.78;;;12.25;100.00
47726;BME280;33483;48.294;16.388;2023-02-18T06:46:29;99983.06;;;12.32;100.00
47726;BME280;33483;48.294;16.388;2023-02-18T06:48:59;99975.47;;;12.32;100.00
47726;BME280;33483;48.294;16.388;2023-02-18T06:51:27;99984.69;;;12.40;100.00
47726;BME280;33483;48.294;16.388;2023-02-18T06:53:54;99977.09;;;12.41;100.00
47726;BME280;33483;48.294;16.388;2023-02-18T06:56:21;99979.34;;;12.42;100.00
47726;BME280;33483;48.294;16.388;2023-02-18T06:58:50;99977.22;;;12.48;100.00
47726;BME280;33483;48.294;16.388;2023-02-18T07:01:17;99977.13;;;12.54;100.00
47726;BME280;33483;48.294;16.388;2023-02-18T07:03:45;99970.09;;;12.66;100.00
47726;BME280;33483;48.294;16.388;2023-02-18T07:06:15;99970.34;;;12.81;100.00
47726;BME280;33483;48.294;16.388;2023-02-18T07:08:48;99975.03;;;12.73;100.00
47726;BME280;33483;48.294;16.388;2023-02-18T07:11:15;99986.19;;;12.99;100.00
47726;BME280;33483;48.294;16.388;2023-02-18T07:13:44;99978.81;;;12.89;100.00
47726;BME280;33483;48.294;16.388;2023-02-18T07:16:11;99981.94;;;12.98;100.00
47726;BME280;33483;48.294;16.388;2023-02-18T07:18:39;99970.25;;;13.65;100.00
47726;BME280;33483;48.294;16.388;2023-02-18T07:21:06;99980.59;;;13.44;100.00
47726;BME280;33483;48.294;16.388;2023-02-18T07:23:33;99984.66;;;13.30;100.00
47726;BME280;33483;48.294;16.388;2023-02-18T07:26:04;99974.16;;;13.23;100.00
47726;BME280;33483;48.294;16.388;2023-02-18T07:28:35;99976.72;;;13.21;100.00
47726;BME280;33483;48.294;16.388;2023-02-18T07:31:02;99978.63;;;13.13;100.00
47726;BME280;33483;48.294;16.388;2023-02-18T07:33:30;99978.44;;;13.11;100.00
47726;BME280;33483;48.294;16.388;2023-02-18T07:35:57;99990.09;;;13.09;100.00
47726;BME280;33483;48.294;16.388;2023-02-18T07:38:25;99982.41;;;13.15;100.00
47726;BME280;33483;48.294;16.388;2023-02-18T07:40:53;99981.84;;;13.17;100.00
47726;BME280;33483;48.294;16.388;2023-02-18T07:43:23;99983.25;;;13.23;100.00
47726;BME280;33483;48.294;16.388;2023-02-18T07:45:50;99987.88;;;13.21;100.00
47726;BME280;33483;48.294;16.388;2023-02-18T07:48:19;99982.59;;;13.30;100.00
47726;BME280;33483;48.294;16.388;2023-02-18T07:50:46;99981.97;;;13.37;100.00
47726;BME280;33483;48.294;16.388;2023-02-18T07:53:14;99983.47;;;13.38;100.00
47726;BME280;33483;48.294;16.388;2023-02-18T07:55:44;99980.91;;;13.27;100.00
47726;BME280;33483;48.294;16.388;2023-02-18T07:58:19;99978.44;;;13.24;100.00
47726;BME280;33483;48.294;16.388;2023-02-18T08:00:46;99981.53;;;13.20;100.00
47726;BME280;33483;48.294;16.388;2023-02-18T08:03:19;99978.00;;;13.20;100.00
47726;BME280;33483;48.294;16.388;2023-02-18T08:05:48;99969.25;;;13.16;100.00
47726;BME280;33483;48.294;16.388;2023-02-18T08:08:17;99970.19;;;13.18;100.00
47726;BME280;33483;48.294;16.388;2023-02-18T08:10:47;99969.53;;;13.25;100.00
47726;BME280;33483;48.294;16.388;2023-02-18T08:13:15;99968.13;;;13.32;100.00
47726;BME280;33483;48.294;16.388;2023-02-18T08:15:42;99965.25;;;13.37;100.00
47726;BME280;33483;48.294;16.388;2023-02-18T08:18:19;99970.38;;;13.46;100.00
47726;BME280;33483;48.294;16.388;2023-02-18T08:20:48;99957.34;;;13.54;100.00
47726;BME280;33483;48.294;16.388;2023-02-18T08:23:17;99957.41;;;13.75;100.00
47726;BME280;33483;48.294;16.388;2023-02-18T08:25:48;99954.69;;;13.83;100.00
47726;BME280;33483;48.294;16.388;2023-02-18T08:28:16;99964.53;;;13.84;100.00
47726;BME280;33483;48.294;16.388;2023-02-18T08:30:47;99958.13;;;13.76;100.00
47726;BME280;33483;48.294;16.388;2023-02-18T08:33:15;99966.25;;;13.87;100.00
47726;BME280;33483;48.294;16.388;2023-02-18T08:35:42;99957.44;;;13.96;100.00
47726;BME280;33483;48.294;16.388;2023-02-18T08:38:10;99959.59;;;13.90;100.00
47726;BME280;33483;48.294;16.388;2023-02-18T08:40:37;99961.44;;;13.87;100.00
47726;BME280;33483;48.294;16.388;2023-02-18T08:43:04;99951.78;;;13.88;100.00
47726;BME280;33483;48.294;16.388;2023-02-18T08:45:31;99956.19;;;13.84;100.00
47726;BME280;33483;48.294;16.388;2023-02-18T08:48:04;99955.34;;;13.76;100.00
47726;BME280;33483;48.294;16.388;2023-02-18T08:50:46;99962.84;;;13.81;100.00
47726;BME280;33483;48.294;16.388;2023-02-18T08:53:14;99954.69;;;13.83;100.00
47726;BME280;33483;48.294;16.388;2023-02-18T08:55:41;99958.22;;;13.83;100.00
47726;BME280;33483;48.294;16.388;2023-02-18T08:58:09;99945.47;;;13.88;100.00
47726;BME280;33483;48.294;16.388;2023-02-18T09:00:36;99953.84;;;13.88;100.00
47726;BME280;33483;48.294;16.388;2023-02-18T09:03:04;99953.84;;;13.88;100.00
47726;BME280;33483;48.294;16.388;2023-02-18T09:05:31;99949.28;;;13.98;100.00
47726;BME280;33483;48.294;16.388;2023-02-18T09:07:58;99948.06;;;14.40;100.00
47726;BME280;33483;48.294;16.388;2023-02-18T09:10:25;99943.53;;;14.78;100.00
47726;BME280;33483;48.294;16.388;2023-02-18T09:12:55;99933.94;;;14.87;100.00
47726;BME280;33483;48.294;16.388;2023-02-18T09:15:22;99934.28;;;15.11;100.00
47726;BME280;33483;48.294;16.388;2023-02-18T09:17:49;99946.94;;;15.12;100.00
47726;BME280;33483;48.294;16.388;2023-02-18T09:20:18;99939.03;;;14.96;99.61
47726;BME280;33483;48.294;16.388;2023-02-18T09:22:48;99950.19;;;14.96;99.58
47726;BME280;33483;48.294;16.388;2023-02-18T09:25:15;99931.03;;;15.00;100.00
47726;BME280;33483;48.294;16.388;2023-02-18T09:27:42;99941.50;;;15.07;96.19
47726;BME280;33483;48.294;16.388;2023-02-18T09:30:09;99922.13;;;15.37;94.50
47726;BME280;33483;48.294;16.388;2023-02-18T09:32:37;99941.00;;;15.44;89.43
47726;BME280;33483;48.294;16.388;2023-02-18T09:35:04;99937.84;;;15.47;91.12
47726;BME280;33483;48.294;16.388;2023-02-18T09:37:31;99934.94;;;15.32;88.04
47726;BME280;33483;48.294;16.388;2023-02-18T09:39:58;99929.38;;;15.32;87.27
47726;BME280;33483;48.294;16.388;2023-02-18T09:42:30;99932.81;;;15.46;87.19
47726;BME280;33483;48.294;16.388;2023-02-18T09:44:59;99937.69;;;15.53;88.52
47726;BME280;33483;48.294;16.388;2023-02-18T09:47:35;99937.31;;;15.56;87.22
47726;BME280;33483;48.294;16.388;2023-02-18T09:50:25;99937.69;;;15.60;87.58
47726;BME280;33483;48.294;16.388;2023-02-18T09:52:50;99944.59;;;15.59;87.63
47726;BME280;33483;48.294;16.388;2023-02-18T09:57:49;99919.00;;;15.40;89.80
47726;BME280;33483;48.294;16.388;2023-02-18T10:02:54;99927.66;;;15.29;91.50
47726;BME280;33483;48.294;16.388;2023-02-18T10:05:25;99934.28;;;15.11;95.04
47726;BME280;33483;48.294;16.388;2023-02-18T10:07:55;99922.72;;;15.07;96.59
47726;BME280;33483;48.294;16.388;2023-02-18T10:10:30;99916.84;;;14.90;97.37
47726;BME280;33483;48.294;16.388;2023-02-18T10:12:59;99906.66;;;14.72;99.69
47726;BME280;33483;48.294;16.388;2023-02-18T10:15:27;99910.56;;;14.69;100.00
47726;BME280;33483;48.294;16.388;2023-02-18T10:17:55;99907.63;;;14.54;100.00
47726;BME280;33483;48.294;16.388;2023-02-18T10:20:23;99899.22;;;14.46;100.00
47726;BME280;33483;48.294;16.388;2023-02-18T10:22:53;99907.94;;;14.43;100.00
47726;BME280;33483;48.294;16.388;2023-02-18T10:25:21;99909.06;;;14.47;100.00
47726;BME280;33483;48.294;16.388;2023-02-18T10:27:52;99898.25;;;14.44;100.00
47726;BME280;33483;48.294;16.388;2023-02-18T10:30:39;99904.13;;;14.33;100.00
47726;BME280;33483;48.294;16.388;2023-02-18T10:41:05;99891.03;;;14.69;100.00
47726;BME280;33483;48.294;16.388;2023-02-18T10:43:49;99887.81;;;14.65;99.18
47726;BME280;33483;48.294;16.388;2023-02-18T10:51:28;99879.25;;;14.91;97.27
47726;BME280;33483;48.294;16.388;2023-02-18T10:53:57;99876.16;;;15.02;96.11
47726;BME280;33483;48.294;16.388;2023-02-18T10:56:39;99869.88;;;15.09;96.82
47726;BME280;33483;48.294;16.388;2023-02-18T10:59:17;99864.72;;;14.85;94.50
47726;BME280;33483;48.294;16.388;2023-02-18T11:01:52;99852.72;;;15.05;92.42
47726;BME280;33483;48.294;16.388;2023-02-18T11:04:25;99852.09;;;15.35;90.47
47726;BME280;33483;48.294;16.388;2023-02-18T11:06:52;99840.81;;;15.55;86.35
47726;BME280;33483;48.294;16.388;2023-02-18T11:12:28;99829.84;;;15.57;86.44
47726;BME280;33483;48.294;16.388;2023-02-18T11:15:17;99825.25;;;15.90;84.91
47726;BME280;33483;48.294;16.388;2023-02-18T11:17:48;99832.72;;;16.33;80.90
47726;BME280;33483;48.294;16.388;2023-02-18T11:22:44;99806.41;;;16.43;76.50
47726;BME280;33483;48.294;16.388;2023-02-18T11:25:22;99810.16;;;16.38;76.09
47726;BME280;33483;48.294;16.388;2023-02-18T11:27:50;99803.81;;;16.15;76.81
47726;BME280;33483;48.294;16.388;2023-02-18T11:32:58;99806.06;;;16.47;76.10
47726;BME280;33483;48.294;16.388;2023-02-18T11:35:27;99806.25;;;16.49;74.88
47726;BME280;33483;48.294;16.388;2023-02-18T11:37:59;99801.56;;;16.59;74.31
47726;BME280;33483;48.294;16.388;2023-02-18T11:40:32;99794.88;;;16.54;73.08
47726;BME280;33483;48.294;16.388;2023-02-18T11:43:03;99781.97;;;16.66;73.49
47726;BME280;33483;48.294;16.388;2023-02-18T11:45:32;99776.94;;;16.50;74.24
47726;BME280;33483;48.294;16.388;2023-02-18T11:50:36;99783.63;;;16.62;73.20
47726;BME280;33483;48.294;16.388;2023-02-18T11:53:21;99773.53;;;16.74;71.83
47726;BME280;33483;48.294;16.388;2023-02-18T11:55:54;99772.81;;;16.73;72.20
47726;BME280;33483;48.294;16.388;2023-02-18T11:58:22;99771.97;;;16.88;70.53
47726;BME280;33483;48.294;16.388;2023-02-18T12:00:49;99774.28;;;16.67;70.43
47726;BME280;33483;48.294;16.388;2023-02-18T12:03:43;99754.00;;;16.44;70.14
47726;BME280;33483;48.294;16.388;2023-02-18T12:06:14;99757.34;;;16.42;70.39
47726;BME280;33483;48.294;16.388;2023-02-18T12:08:54;99743.94;;;16.56;70.68
47726;BME280;33483;48.294;16.388;2023-02-18T12:11:27;99735.88;;;16.60;69.53
47726;BME280;33483;48.294;16.388;2023-02-18T12:13:56;99739.81;;;16.49;69.83
47726;BME280;33483;48.294;16.388;2023-02-18T12:19:06;99738.69;;;16.60;69.00
47726;BME280;33483;48.294;16.388;2023-02-18T12:24:17;99741.72;;;16.94;66.48
47726;BME280;33483;48.294;16.388;2023-02-18T12:29:30;99717.88;;;16.85;63.54
47726;BME280;33483;48.294;16.388;2023-02-18T12:32:04;99719.53;;;16.49;64.78
47726;BME280;33483;48.294;16.388;2023-02-18T12:39:48;99683.34;;;16.83;64.60
47726;BME280;33483;48.294;16.388;2023-02-18T12:44:59;99657.59;;;16.52;62.89
47726;BME280;33483;48.294;16.388;2023-02-18T12:47:55;99669.72;;;16.40;62.82
47726;BME280;33483;48.294;16.388;2023-02-18T12:55:34;99654.78;;;16.37;63.29
47726;BME280;33483;48.294;16.388;2023-02-18T12:58:20;99650.13;;;16.40;62.76
47726;BME280;33483;48.294;16.388;2023-02-18T13:01:01;99653.84;;;16.42;62.90
47726;BME280;33483;48.294;16.388;2023-02-18T13:03:36;99641.75;;;16.40;62.27
47726;BME280;33483;48.294;16.388;2023-02-18T13:11:30;99635.25;;;16.30;61.08
47726;BME280;33483;48.294;16.388;2023-02-18T13:14:15;99644.03;;;16.26;60.71
47726;BME280;33483;48.294;16.388;2023-02-18T13:16:47;99633.38;;;16.32;59.95
47726;BME280;33483;48.294;16.388;2023-02-18T13:19:24;99621.81;;;16.36;60.88
47726;BME280;33483;48.294;16.388;2023-02-18T13:21:55;99617.72;;;16.29;59.36
47726;BME280;33483;48.294;16.388;2023-02-18T13:24:38;99597.66;;;16.16;59.75
47726;BME280;33483;48.294;16.388;2023-02-18T13:29:58;99585.69;;;16.23;58.33
47726;BME280;33483;48.294;16.388;2023-02-18T13:32:35;99591.63;;;16.27;58.65
47726;BME280;33483;48.294;16.388;2023-02-18T13:40:17;99566.41;;;16.42;55.12
47726;BME280;33483;48.294;16.388;2023-02-18T13:42:45;99568.06;;;16.45;54.15
47726;BME280;33483;48.294;16.388;2023-02-18T13:45:23;99569.53;;;16.46;54.66
47726;BME280;33483;48.294;16.388;2023-02-18T13:47:50;99572.91;;;16.52;54.41
47726;BME280;33483;48.294;16.388;2023-02-18T13:52:57;99565.75;;;16.58;53.90
47726;BME280;33483;48.294;16.388;2023-02-18T13:55:32;99560.91;;;16.59;53.66
47726;BME280;33483;48.294;16.388;2023-02-18T13:58:01;99568.06;;;16.52;53.17
47726;BME280;33483;48.294;16.388;2023-02-18T14:00:35;99549.44;;;16.40;53.40
47726;BME280;33483;48.294;16.388;2023-02-18T14:03:51;99551.13;;;16.35;54.08
47726;BME280;33483;48.294;16.388;2023-02-18T14:05:57;99532.69;;;16.32;54.11
47726;BME280;33483;48.294;16.388;2023-02-18T14:08:29;99539.81;;;16.26;54.10
47726;BME280;33483;48.294;16.388;2023-02-18T14:11:40;99542.81;;;16.20;54.18
47726;BME280;33483;48.294;16.388;2023-02-18T14:13:54;99541.34;;;16.19;53.41
47726;BME280;33483;48.294;16.388;2023-02-18T14:19:27;99541.56;;;16.14;54.05
47726;BME280;33483;48.294;16.388;2023-02-18T14:22:21;99536.16;;;16.08;54.25
47726;BME280;33483;48.294;16.388;2023-02-18T14:24:43;99527.78;;;16.08;53.36
47726;BME280;33483;48.294;16.388;2023-02-18T14:27:14;99523.13;;;16.03;53.09
47726;BME280;33483;48.294;16.388;2023-02-18T14:29:41;99527.66;;;15.99;53.95
47726;BME280;33483;48.294;16.388;2023-02-18T14:32:09;99517.94;;;16.00;53.89
47726;BME280;33483;48.294;16.388;2023-02-18T14:34:42;99511.22;;;16.03;53.30
47726;BME280;33483;48.294;16.388;2023-02-18T14:50:22;99507.78;;;16.19;52.60
47726;BME280;33483;48.294;16.388;2023-02-18T14:52:56;99511.16;;;16.18;51.77
47726;BME280;33483;48.294;16.388;2023-02-18T14:58:02;99516.94;;;16.12;51.96
47726;BME280;33483;48.294;16.388;2023-02-18T15:00:33;99517.34;;;16.09;52.09
47726;BME280;33483;48.294;16.388;2023-02-18T15:03:01;99525.38;;;16.05;52.68
47726;BME280;33483;48.294;16.388;2023-02-18T15:05:30;99524.84;;;15.99;52.92